• Join FlightAware (Why Join?)
  • Login
  • US Flag 
05:03AM EST


 

Airport Tracker/Info


-or-


 

Live Flight TrackerFlight Track Log ✈ UAL3747 ✈ 22-Apr-2013 ✈ KIAD - KIND

Flight Track Log - Related Links

Times and Time Zones

All times are in EDT time to prevent confusion due to time zone crossing. See the UAL3747 flight status page for this flight to view local times or setup timezone preferences in your user account.

Time Position Orientation Groundspeed Altitude Reporting Facility
EDT Latitude Longitude Course Direction KTS MPH feet Rate Location/Type
09:06AM 38.9333 -77.5167 270° West 172 198 1,800  Level Potomac TRACON
09:07AM 38.9333 -77.5833 270° West 232 267 3,300 1,740 Climbing Potomac TRACON
09:08AM 38.9000 -77.6833 247° West 273 314 5,300 1,980 Climbing Potomac TRACON
09:09AM 38.8967 -77.7228 264° West 276 318 6,300 2,820 Climbing Washington Center
09:10AM 38.8861 -77.9776 288° West  Level FlightAware Approximate
09:10AM 38.8867 -77.8053 261° West 295 339 9,300  Level Washington Center
09:11AM 38.9195 -78.1112 288° West  Level FlightAware Approximate
09:11AM 38.8889 -77.9092 272° West 289 333 12,200  Level Washington Center
09:12AM 38.9500 -78.2425 270° West  Level FlightAware Approximate
09:12AM 38.9739 -77.9386 345° North 238 274 14,800  Level Washington Center
09:13AM 39.0589 -77.9681 345° North 268 308 16,900 1,080 Climbing Washington Center
09:14AM 39.0547 -78.0614 267° West 227 261 17,000 600 Climbing Washington Center
09:15AM 39.0236 -78.1647 249° West 245 282 18,200 1,020 Climbing Washington Center
09:16AM 39.0167 -78.2872 266° West 303 349 19,100 1,500 Climbing Washington Center
09:17AM 39.0075 -78.4100 265° West 341 392 21,200 1,800 Climbing Washington Center
09:18AM 39.0003 -78.5431 266° West 361 415 22,800 1,500 Climbing Washington Center
09:19AM 38.9928 -78.6736 266° West 368 423 24,200 1,440 Climbing Washington Center
09:20AM 38.9831 -78.8094 265° West 373 429 25,700 1,440 Climbing Washington Center
09:21AM 38.9833 -78.9456 270° West 383 441 27,100 1,260 Climbing Washington Center
09:22AM 38.9856 -79.0875 271° West 388 447 28,300 1,140 Climbing Washington Center
09:23AM 38.9897 -79.2292 272° West 394 453 29,400 1,080 Climbing Washington Center
09:24AM 38.9936 -79.3708 272° West 405 466 30,500 960 Climbing Washington Center
09:25AM 38.9953 -79.5153 271° West 405 466 31,400 660 Climbing Washington Center
09:26AM 39.0014 -79.6492 273° West 411 473 31,900 1,020 Climbing Washington Center
09:27AM 39.0025 -79.7961 271° West 416 479 33,500 1,200 Climbing Washington Center
09:29AM 39.0047 -80.1289 271° West 390 449 36,000 720 Climbing Indianapolis Center
09:30AM 39.0069 -80.2697 271° West 393 452 36,000  Level Indianapolis Center
09:31AM 39.0389 -80.4136 286° West 418 481 36,000  Level Indianapolis Center
09:32AM 39.0786 -80.5589 289° West 430 495 36,000  Level Indianapolis Center
09:33AM 39.1242 -80.7353 288° West 433 498 36,000  Level Indianapolis Center
09:34AM 39.1631 -80.8844 289° West 439 505 36,000  Level Indianapolis Center
09:35AM 39.2019 -81.0333 289° West 441 507 36,000  Level Indianapolis Center
09:36AM 39.2403 -81.1806 289° West 437 503 36,000  Level Indianapolis Center
09:37AM 39.2781 -81.3286 288° West 437 503 36,000  Level Indianapolis Center
09:38AM 39.3164 -81.4747 289° West 433 498 36,000  Level Indianapolis Center
09:40AM 39.3611 -81.6519 288° West 434 499 36,000  Level Indianapolis Center
09:41AM 39.3986 -81.8006 288° West 436 502 36,000  Level Indianapolis Center
09:42AM 39.4358 -81.9483 288° West 435 501 36,000  Level Indianapolis Center
09:43AM 39.4728 -82.0972 288° West 436 502 36,000 -120 Level Indianapolis Center
09:44AM 39.5114 -82.2536 288° West 434 499 35,800 -540 Descending Indianapolis Center
09:45AM 39.5489 -82.4053 288° West 436 502 35,000 -420 Descending Indianapolis Center
09:46AM 39.5864 -82.5561 288° West 437 503 35,000  Level Indianapolis Center
09:47AM 39.6292 -82.7322 288° West 435 501 35,000 -300 Level Indianapolis Center
09:48AM 39.6647 -82.8842 287° West 436 502 34,500 -960 Descending Indianapolis Center
09:49AM 39.7019 -83.0386 287° West 443 510 33,100 -1,260 Descending Indianapolis Center
09:50AM 39.7522 -83.1769 295° West 421 484 32,000 -1,200 Descending Indianapolis Center
09:51AM 39.8097 -83.3058 300° West 412 474 30,700 -1,020 Descending Indianapolis Center
09:52AM 39.8594 -83.4553 293° West 411 473 30,000 -360 Descending Indianapolis Center
09:53AM 39.8728 -83.5989 277° West 409 471 30,000  Level Indianapolis Center
09:54AM 39.8903 -83.7511 279° West 420 483 30,000  Level Indianapolis Center
09:55AM 39.9086 -83.9067 279° West 428 493 30,000  Level Indianapolis Center
09:56AM 39.9267 -84.0617 279° West 430 495 30,000 -360 Level Indianapolis Center
09:57AM 39.9442 -84.2147 279° West 425 489 29,300 -1,260 Descending Indianapolis Center
09:58AM 39.9633 -84.3869 278° West 407 468 27,400 -1,740 Descending Indianapolis Center
09:59AM 39.9769 -84.5256 277° West 388 447 25,800 -1,680 Descending Indianapolis Center
10:00AM 39.9917 -84.6633 278° West 381 438 24,000 -1,920 Descending Indianapolis Center
10:01AM 40.0064 -84.8008 278° West 380 437 21,900 -1,980 Descending Indianapolis Center
10:02AM 40.0211 -84.9322 278° West 363 418 20,000 -1,860 Descending Indianapolis Center
10:03AM 40.0336 -85.0583 277° West 348 400 18,100 -1,680 Descending Indianapolis Center
10:04AM 40.0453 -85.1811 277° West 341 392 16,600 -1,920 Descending Indianapolis Center
10:05AM 40.0592 -85.3253 277° West 340 391 14,200 -2,100 Descending Indianapolis Center
10:06AM 40.0731 -85.4550 278° West 352 405 12,300 -1,620 Descending Indianapolis Center
10:07AM 40.0861 -85.5781 278° West 344 396 10,900 -720 Descending Indianapolis Center
10:08AM 40.0956 -85.6981 276° West 331 381 10,900  Level Indianapolis Center
10:10AM 40.0597 -85.8100 247° West 332 382 10,900  Level Indianapolis Center
10:11AM 40.0103 -85.9125 238° Southwest 331 381 10,900  Level Indianapolis Center
10:12AM 39.9497 -85.9939 226° Southwest 324 373 11,000 -720 Climbing Indianapolis Center
10:13AM 39.8944 -86.0983 235° Southwest 296 341 9,500 -1,440 Descending Indianapolis Center
10:13AM 39.8667 -86.1667 242° Southwest 268 308 8,400 -1,380 Descending Indianapolis TRACON
10:14AM 39.8167 -86.2500 232° Southwest 268 308 7,100 -660 Descending Indianapolis TRACON
10:16AM 39.7667 -86.3333 232° Southwest 271 312 7,100 -480 Level Indianapolis TRACON
10:16AM 39.7333 -86.4000 237° Southwest 272 313 6,200 -1,260 Descending Indianapolis TRACON
10:17AM 39.7214 -86.4181 229° Southwest 271 312 5,600 -1,020 Descending Indianapolis Center
10:18AM 39.6811 -86.4939 235° Southwest 271 312 4,900 -960 Descending Indianapolis Center
10:19AM 39.5833 -86.4500 161° South 237 273 3,100 -780 Descending Indianapolis TRACON
10:21AM 39.6333 -86.3833 46° Northeast 181 208 2,700 -540 Descending Indianapolis TRACON
10:21AM 39.6667 -86.3500 38° Northeast 179 206 2,100 -960 Descending Indianapolis TRACON
10:22AM 39.6833 -86.3167 57° Northeast 142 163 1,200 -900 Descending Indianapolis TRACON